Time;durP1;ratioP1;P1;durP2;ratioP2;P2;SDS_P1;SDS_P2;PMS_P1;PMS_P2;Temp;Humidity;BMP_temperature;BMP_pressure;BME280_temperature;BME280_humidity;BME280_pressure;Samples;Min_cycle;Max_cycle;Signal;HPM_P1;HPM_P2
2021/12/05 00:17:48;;;;;;;18.80;15.13;;;;;;;1.25;84.61;98027.03;5460343;23;20230;-84
2021/12/05 00:25:31;;;;;;;25.37;19.53;;;;;;;1.43;83.96;98048.38;4923466;29;20210;-86
2021/12/05 00:42:15;;;;;;;23.57;19.27;;;;;;;1.17;84.83;98000.78;5187601;23;20266;-84
2021/12/05 01:04:57;;;;;;;24.03;18.67;;;;;;;1.50;85.41;98035.19;4886144;29;20267;-83
2021/12/05 01:11:49;;;;;;;22.57;17.97;;;;;;;1.58;85.30;98038.47;4919358;29;20237;-84
2021/12/05 01:17:42;;;;;;;25.43;18.17;;;;;;;1.36;85.68;97991.28;4923018;29;20232;-84
2021/12/05 01:20:53;;;;;;;23.50;18.23;;;;;;;1.45;86.02;97998.81;4922932;29;20175;-84
2021/12/05 01:26:29;;;;;;;25.07;18.57;;;;;;;1.41;85.83;97965.13;4928246;23;20227;-84
2021/12/05 01:29:26;;;;;;;22.63;18.23;;;;;;;1.63;85.90;98000.91;4897414;29;20226;-84
2021/12/05 01:32:08;;;;;;;21.67;18.33;;;;;;;1.57;85.50;97985.84;4939048;23;20226;-83
2021/12/05 01:34:54;;;;;;;21.23;17.23;;;;;;;1.48;85.79;97977.31;4933264;23;20233;-85
2021/12/05 01:38:00;;;;;;;20.73;16.93;;;;;;;1.76;85.49;98000.91;4927435;23;20228;-84
2021/12/05 02:43:12;;;;;;;18.20;14.93;;;;;;;1.71;85.98;98021.81;4922712;29;20243;-84
2021/12/05 02:45:53;;;;;;;15.10;13.50;;;;;;;1.72;85.12;98016.34;4908585;29;20267;-84
2021/12/05 02:48:30;;;;;;;15.97;14.27;;;;;;;1.41;85.35;97973.84;4906128;23;21177;-83
2021/12/05 02:51:07;;;;;;;16.83;14.40;;;;;;;1.65;85.63;98015.50;4925886;29;20245;-83
2021/12/05 02:56:40;;;;;;;16.37;14.13;;;;;;;1.59;85.63;98016.31;4920990;29;20242;-83
2021/12/05 03:02:04;;;;;;;15.20;13.30;;;;;;;1.65;86.07;98023.44;4919052;29;20234;-83
2021/12/05 03:04:32;;;;;;;16.60;13.40;;;;;;;1.61;86.03;98008.19;4919807;29;20221;-84
2021/12/05 03:07:09;;;;;;;17.27;13.40;;;;;;;1.68;86.30;98027.50;4926943;23;20230;-83
2021/12/05 03:09:41;;;;;;;16.87;13.37;;;;;;;1.67;85.57;98023.25;4919956;29;20239;-83
2021/12/05 03:12:16;;;;;;;15.43;13.70;;;;;;;1.56;85.89;98011.44;4925242;23;20544;-83
2021/12/05 03:14:59;;;;;;;15.73;13.87;;;;;;;1.57;86.48;98014.91;4903310;29;20234;-83
2021/12/05 03:17:30;;;;;;;16.90;14.03;;;;;;;1.64;86.11;98026.25;4919592;29;20234;-84
2021/12/05 03:20:00;;;;;;;16.03;13.57;;;;;;;1.52;86.65;98020.78;4912829;23;20230;-83
2021/12/05 03:22:33;;;;;;;17.83;13.90;;;;;;;1.40;86.17;98006.53;4905301;29;20183;-82
2021/12/05 03:25:23;;;;;;;16.03;14.33;;;;;;;1.66;86.36;98019.78;4927728;23;20266;-83
2021/12/05 03:27:54;;;;;;;19.17;15.33;;;;;;;1.69;85.83;98034.38;4915525;23;20238;-83
2021/12/05 03:30:28;;;;;;;17.30;15.33;;;;;;;1.50;86.55;98021.97;4930888;29;20244;-84
2021/12/05 03:32:57;;;;;;;16.80;14.60;;;;;;;1.58;86.51;98035.00;4936489;23;20238;-84
2021/12/05 03:35:37;;;;;;;17.53;13.70;;;;;;;1.63;86.51;98048.41;4917518;23;20232;-83
2021/12/05 03:38:06;;;;;;;16.00;13.83;;;;;;;1.59;86.70;98044.53;4870513;29;20204;-83
2021/12/05 03:40:39;;;;;;;15.07;13.47;;;;;;;1.62;86.54;98037.03;4910360;23;20216;31
2021/12/05 03:43:32;;;;;;;15.87;13.63;;;;;;;1.53;86.93;98037.44;4923834;23;20210;-83
2021/12/05 03:46:12;;;;;;;15.83;13.77;;;;;;;1.67;86.69;98052.28;4936903;23;20218;-83
2021/12/05 03:49:37;;;;;;;16.90;13.63;;;;;;;1.60;86.69;98033.78;4931010;23;20238;-83
2021/12/05 03:52:37;;;;;;;15.47;13.57;;;;;;;1.74;86.73;98056.53;4930373;23;20294;-83
2021/12/05 03:55:56;;;;;;;15.67;13.43;;;;;;;1.76;86.47;98049.25;4930583;23;20239;-83
2021/12/05 03:58:40;;;;;;;15.37;13.60;;;;;;;1.76;86.74;98043.16;4922706;29;20215;-83
2021/12/05 04:01:14;;;;;;;15.03;13.33;;;;;;;1.74;87.00;98050.44;4922493;29;20186;-83
2021/12/05 04:04:13;;;;;;;16.47;14.20;;;;;;;1.66;87.12;98048.81;4928333;23;20210;-83
2021/12/05 04:07:18;;;;;;;15.53;13.83;;;;;;;1.75;87.04;98050.25;5001558;23;20242;-83
2021/12/05 04:09:52;;;;;;;15.43;13.60;;;;;;;1.75;87.37;98060.81;4883061;29;20256;-83
2021/12/05 04:12:45;;;;;;;15.93;13.40;;;;;;;1.63;86.69;98051.06;4872452;29;20243;-84
2021/12/05 04:15:43;;;;;;;15.50;13.40;;;;;;;1.87;86.54;98076.06;4871877;29;20216;-83
2021/12/05 04:18:40;;;;;;;17.40;13.90;;;;;;;1.88;86.79;98073.22;4923024;23;20325;-83
2021/12/05 04:21:36;;;;;;;15.77;14.07;;;;;;;1.81;86.47;98059.19;4929069;23;20274;-83
2021/12/05 04:24:22;;;;;;;17.40;13.97;;;;;;;1.87;87.05;98065.50;5008422;23;20238;-83
2021/12/05 04:27:24;;;;;;;16.23;13.93;;;;;;;1.86;86.25;98051.50;5017408;23;20223;-83
2021/12/05 04:30:59;;;;;;;17.27;13.67;;;;;;;1.68;86.70;98030.94;4952378;23;20207;-83
2021/12/05 04:33:40;;;;;;;16.33;14.17;;;;;;;1.92;86.75;98057.75;4914840;23;20242;-83
2021/12/05 04:36:56;;;;;;;18.17;14.13;;;;;;;1.91;86.41;98058.81;4921848;29;20218;-83
2021/12/05 04:39:58;;;;;;;17.53;14.43;;;;;;;1.81;86.40;98053.09;4921635;29;20218;-83
2021/12/05 04:42:51;;;;;;;15.57;13.67;;;;;;;1.88;86.12;98060.00;4926022;23;20283;-83
2021/12/05 04:45:25;;;;;;;17.03;14.13;;;;;;;1.81;86.30;98072.41;4904359;29;20199;-83
2021/12/05 04:48:08;;;;;;;17.27;13.53;;;;;;;1.82;86.44;98078.50;4919446;29;20226;-83
2021/12/05 04:50:57;;;;;;;19.03;13.73;;;;;;;1.81;85.45;98087.44;4932082;23;20242;-83
2021/12/05 04:53:29;;;;;;;15.67;13.00;;;;;;;1.68;86.30;98065.25;4919039;29;20231;-83
2021/12/05 04:56:06;;;;;;;16.77;13.63;;;;;;;1.70;86.26;98083.53;4919025;29;20229;-83
2021/12/05 04:58:33;;;;;;;18.80;14.80;;;;;;;1.67;86.16;98081.31;4888120;29;20198;-83
2021/12/05 05:01:05;;;;;;;17.27;13.97;;;;;;;1.67;86.23;98091.88;4925077;23;20234;-84
2021/12/05 05:03:36;;;;;;;17.30;13.37;;;;;;;1.71;86.43;98077.25;4919310;29;20179;-83
2021/12/05 05:06:16;;;;;;;17.03;14.10;;;;;;;1.73;86.44;98083.13;4902620;29;20218;-83
2021/12/05 05:08:47;;;;;;;16.17;13.40;;;;;;;1.75;86.51;98083.75;4925350;23;20235;-83
2021/12/05 05:11:19;;;;;;;16.10;13.23;;;;;;;1.74;86.71;98090.88;4909002;23;20246;-83
2021/12/05 05:14:06;;;;;;;14.97;13.23;;;;;;;1.57;87.21;98073.78;4917148;29;20211;-83
2021/12/05 05:16:38;;;;;;;17.70;13.83;;;;;;;1.75;86.96;98108.34;4928335;23;20218;-84
2021/12/05 05:19:16;;;;;;;16.90;13.90;;;;;;;1.73;87.07;98110.34;4909512;29;20237;-83
2021/12/05 05:21:52;;;;;;;16.27;14.00;;;;;;;1.67;86.55;98121.75;4915057;29;20234;-83
2021/12/05 05:43:27;;;;;;;17.70;14.17;;;;;;;1.77;87.05;98169.66;4906227;23;20242;-83
2021/12/05 05:46:36;;;;;;;17.67;13.60;;;;;;;1.86;85.86;98174.78;4888604;29;20238;-84
2021/12/05 05:49:35;;;;;;;17.17;13.67;;;;;;;1.96;85.43;98183.16;4899097;23;20417;-84
2021/12/05 05:52:22;;;;;;;16.60;13.47;;;;;;;1.96;84.99;98189.22;4932049;23;20247;-84
2021/12/05 05:55:00;;;;;;;17.47;13.87;;;;;;;1.78;84.64;98187.16;4917868;29;20242;-83
2021/12/05 06:00:07;;;;;;;19.30;14.77;;;;;;;1.53;86.09;98183.44;4937183;29;20230;-83
2021/12/05 06:06:25;;;;;;;20.47;15.70;;;;;;;1.41;87.28;98157.78;4912171;23;20227;-83
2021/12/05 06:09:02;;;;;;;18.27;14.73;;;;;;;1.44;86.04;98155.56;4925828;23;20238;-84
2021/12/05 06:11:41;;;;;;;20.17;15.60;;;;;;;1.16;86.38;98128.47;4919312;29;20177;-83
2021/12/05 06:14:14;;;;;;;18.33;14.87;;;;;;;1.17;87.34;98140.63;4928745;23;20738;-83
2021/12/05 06:16:48;;;;;;;19.60;14.93;;;;;;;1.10;87.15;98134.50;5010116;23;20219;-82
2021/12/05 06:19:19;;;;;;;19.67;15.27;;;;;;;1.21;87.69;98161.13;4919996;29;20217;-83
2021/12/05 06:22:05;;;;;;;20.87;15.93;;;;;;;1.11;88.08;98157.25;4906357;29;20179;-83
2021/12/05 06:24:32;;;;;;;20.83;15.70;;;;;;;1.29;88.80;98176.00;4919025;29;20215;-83
2021/12/05 06:27:25;;;;;;;20.13;16.10;;;;;;;1.30;88.65;98173.19;4918671;29;20239;-83
2021/12/05 06:30:03;;;;;;;22.30;16.43;;;;;;;1.22;88.52;98169.88;4927062;23;20227;-84
2021/12/05 06:36:51;;;;;;;21.13;15.60;;;;;;;1.38;88.26;98184.56;4909478;29;20218;-83
2021/12/05 06:41:37;;;;;;;30.47;21.53;;;;;;;1.56;88.78;98201.50;4926743;23;20230;-84
2021/12/05 06:46:50;;;;;;;21.40;16.80;;;;;;;1.54;88.46;98181.59;4918239;29;20235;-83
2021/12/05 06:49:21;;;;;;;20.40;15.47;;;;;;;1.60;88.31;98186.06;4919792;29;20198;-83
2021/12/05 06:51:50;;;;;;;16.63;14.00;;;;;;;1.50;88.23;98146.03;4927424;23;20215;-83
2021/12/05 06:54:50;;;;;;;18.30;14.37;;;;;;;1.76;87.53;98186.56;4883336;23;20214;-84
2021/12/05 06:57:29;;;;;;;16.57;13.83;;;;;;;1.69;87.90;98212.09;4918978;29;20286;-83
2021/12/05 07:00:43;;;;;;;18.70;14.67;;;;;;;1.78;88.35;98242.59;4885786;29;20219;-83
2021/12/05 07:03:14;;;;;;;18.83;15.00;;;;;;;1.81;88.37;98241.41;4932495;23;20232;-83
2021/12/05 07:05:51;;;;;;;20.97;16.27;;;;;;;1.95;88.26;98235.16;4914871;29;20187;-83
2021/12/05 07:08:43;;;;;;;23.23;17.03;;;;;;;2.10;88.05;98233.16;4912364;29;20222;-84
2021/12/05 07:12:02;;;;;;;21.70;16.73;;;;;;;2.33;87.60;98242.59;4898037;29;20199;-83
2021/12/05 07:14:58;;;;;;;20.93;16.90;;;;;;;2.42;87.60;98230.81;4912620;23;20251;-83
2021/12/05 07:20:36;;;;;;;20.57;17.00;;;;;;;2.69;87.43;98221.03;4911060;23;20237;-83
2021/12/05 07:23:35;;;;;;;19.80;16.17;;;;;;;2.81;87.23;98245.84;4918959;29;20218;-83
2021/12/05 07:26:24;;;;;;;17.77;15.50;;;;;;;2.80;86.39;98252.97;4930509;23;20275;-84
2021/12/05 07:40:42;;;;;;;22.33;17.93;;;;;;;2.95;85.27;98252.78;4920652;29;20239;-83
2021/12/05 07:43:15;;;;;;;23.63;18.00;;;;;;;3.02;85.30;98258.91;4919366;29;20243;-83
2021/12/05 07:46:06;;;;;;;22.27;17.27;;;;;;;3.05;85.32;98232.00;5098582;23;20238;-83
2021/12/05 07:48:46;;;;;;;20.80;17.00;;;;;;;3.09;84.43;98226.09;4945579;23;20246;-83
2021/12/05 07:51:28;;;;;;;19.63;16.07;;;;;;;3.34;84.55;98238.69;4908375;23;20235;-84
2021/12/05 07:57:13;;;;;;;21.00;16.77;;;;;;;3.38;83.36;98240.72;4910771;23;20230;-83
2021/12/05 08:00:15;;;;;;;21.57;18.17;;;;;;;3.54;83.48;98227.03;4927179;23;20215;-83
2021/12/05 08:17:21;;;;;;;17.03;15.00;;;;;;;4.01;80.68;98259.47;4926109;23;20217;-82
2021/12/05 08:19:59;;;;;;;23.03;20.57;;;;;;;3.94;80.99;98254.19;4919171;29;20206;-82
2021/12/05 08:22:33;;;;;;;23.20;20.63;;;;;;;4.09;80.98;98263.69;4919056;29;20249;-81
2021/12/05 08:25:11;;;;;;;22.10;19.90;;;;;;;4.10;80.95;98254.72;4924528;23;20226;-83
2021/12/05 08:27:44;;;;;;;22.73;20.33;;;;;;;4.29;81.01;98257.25;4907153;23;20289;-83
2021/12/05 08:30:15;;;;;;;23.93;21.33;;;;;;;4.21;81.08;98246.91;4897317;29;20219;-83
2021/12/05 09:50:57;;;;;;;9.80;8.80;;;;;;;5.74;77.29;98317.97;4889796;29;20226;-83
2021/12/05 10:10:02;;;;;;;2.10;1.97;;;;;;;5.24;78.01;98300.47;4894717;29;20302;-83
2021/12/05 10:36:22;;;;;;;2.93;1.43;;;;;;;5.16;76.36;98277.69;4930622;29;20241;-83
2021/12/05 10:38:54;;;;;;;1.97;1.33;;;;;;;5.09;76.73;98276.09;4929151;29;20301;-83
2021/12/05 10:44:57;;;;;;;2.17;1.50;;;;;;;4.96;77.57;98274.38;4932935;23;20255;-82
2021/12/05 10:48:28;;;;;;;2.43;1.80;;;;;;;5.10;77.75;98288.34;5022207;23;20225;-83
2021/12/05 10:51:08;;;;;;;1.77;1.53;;;;;;;5.06;77.43;98269.38;4916503;23;20235;-83
2021/12/05 10:53:56;;;;;;;1.90;1.40;;;;;;;5.14;77.66;98282.38;4929213;23;20230;-82
2021/12/05 10:57:04;;;;;;;3.97;2.70;;;;;;;5.10;77.95;98283.84;4958986;23;20236;-82
2021/12/05 10:59:50;;;;;;;2.00;1.40;;;;;;;5.03;77.97;98288.41;4929243;23;20238;-82
2021/12/05 11:02:25;;;;;;;2.13;1.23;;;;;;;5.01;77.38;98279.03;4939527;23;20230;-83
2021/12/05 11:05:41;;;;;;;3.93;1.57;;;;;;;4.98;77.36;98277.63;4957994;23;21166;-83
2021/12/05 11:09:19;;;;;;;2.10;1.03;;;;;;;4.87;77.89;98278.31;4928228;23;20311;-83
2021/12/05 11:12:38;;;;;;;2.07;0.90;;;;;;;4.70;77.43;98270.09;4922001;29;20218;-84
2021/12/05 11:15:19;;;;;;;1.83;1.10;;;;;;;4.93;76.07;98282.78;4923644;29;20171;-83
2021/12/05 11:18:13;;;;;;;3.20;0.80;;;;;;;4.73;76.62;98253.72;4946094;23;20242;-83
2021/12/05 11:20:53;;;;;;;1.43;0.90;;;;;;;4.98;77.20;98276.81;4931734;23;20298;-83
2021/12/05 11:26:52;;;;;;;2.37;1.00;;;;;;;5.13;76.98;98274.66;4903379;29;20224;-85
2021/12/05 11:33:20;;;;;;;0.70;0.70;;;;;;;5.35;74.96;98264.44;4957652;23;20206;-83
2021/12/05 11:36:33;;;;;;;0.90;0.50;;;;;;;5.38;74.25;98262.16;4903377;29;20191;-83
2021/12/05 11:39:44;;;;;;;0.53;0.53;;;;;;;5.47;75.21;98260.81;4920589;23;20231;-84
2021/12/05 11:42:21;;;;;;;1.50;0.50;;;;;;;5.53;74.17;98262.63;4913468;23;20290;-83
2021/12/05 11:45:16;;;;;;;0.70;0.50;;;;;;;5.52;74.25;98271.59;4921416;29;20194;-83
2021/12/05 11:48:23;;;;;;;0.60;0.50;;;;;;;5.62;74.45;98261.28;4950888;23;20238;-84
2021/12/05 11:51:28;;;;;;;1.77;0.60;;;;;;;5.63;73.78;98262.91;4932759;23;20254;-83
2021/12/05 11:54:14;;;;;;;1.20;0.70;;;;;;;5.76;73.85;98252.13;5018176;23;20222;-83
2021/12/05 11:57:21;;;;;;;1.43;1.20;;;;;;;5.66;74.38;98243.06;4931216;23;20207;-82
2021/12/05 12:00:43;;;;;;;2.03;1.00;;;;;;;5.61;73.41;98232.28;4926815;23;20214;-83
2021/12/05 12:03:36;;;;;;;2.00;1.10;;;;;;;5.51;73.33;98247.91;4920176;29;20201;-83
2021/12/05 12:06:24;;;;;;;1.60;1.20;;;;;;;5.51;73.53;98264.66;4905526;29;20243;-83
2021/12/05 12:09:23;;;;;;;2.10;1.23;;;;;;;5.29;74.39;98240.38;4921354;29;20554;-83
2021/12/05 12:12:34;;;;;;;3.40;1.23;;;;;;;5.27;74.65;98245.09;1455685;27;20234;-83
2021/12/05 12:15:14;;;;;;;1.47;1.30;;;;;;;5.41;74.84;98253.75;4918615;23;20214;-84
2021/12/05 12:18:13;;;;;;;2.57;1.37;;;;;;;5.26;74.51;98240.00;4919571;29;20235;-83
2021/12/05 12:21:00;;;;;;;3.47;1.13;;;;;;;5.49;74.97;98252.66;4920805;29;20251;-83
2021/12/05 12:23:33;;;;;;;2.53;1.33;;;;;;;5.41;74.50;98239.66;4941088;23;20271;-83
2021/12/05 12:30:13;;;;;;;1.33;1.13;;;;;;;5.73;74.34;98239.31;4917410;23;20238;-83
2021/12/05 12:33:23;;;;;;;2.10;1.30;;;;;;;5.65;73.36;98239.56;4946364;23;20231;-81
2021/12/05 12:35:55;;;;;;;2.83;1.20;;;;;;;5.61;74.15;98237.59;4899718;29;20188;-83
2021/12/05 12:38:53;;;;;;;2.17;1.30;;;;;;;5.59;74.21;98234.34;4902852;29;20250;-83
2021/12/05 12:42:05;;;;;;;2.07;1.20;;;;;;;5.59;73.33;98234.34;4915394;23;20290;-82
2021/12/05 12:45:00;;;;;;;2.47;1.40;;;;;;;5.52;74.23;98241.56;4926903;23;20237;-83
2021/12/05 12:47:53;;;;;;;3.53;1.20;;;;;;;5.43;75.29;98249.03;4923261;23;20238;-83
2021/12/05 12:50:53;;;;;;;1.67;1.30;;;;;;;5.37;74.18;98233.94;4917856;29;20253;-83
2021/12/05 12:53:38;;;;;;;3.27;1.20;;;;;;;5.27;75.14;98242.41;4924168;23;20242;-83
2021/12/05 12:56:26;;;;;;;2.80;1.70;;;;;;;5.00;74.54;98221.66;4919266;29;20238;-82
2021/12/05 12:58:57;;;;;;;1.97;1.13;;;;;;;5.15;74.76;98236.22;4929151;23;20229;-83
2021/12/05 13:10:47;;;;;;;2.43;1.03;;;;;;;4.87;76.09;98217.28;4927640;23;20286;-81
2021/12/05 13:13:47;;;;;;;2.83;1.30;;;;;;;4.92;76.07;98221.94;4911381;23;20274;-82
2021/12/05 13:16:31;;;;;;;3.23;1.40;;;;;;;4.88;75.82;98222.38;4909579;23;20227;-82
2021/12/05 13:19:37;;;;;;;1.93;1.23;;;;;;;4.96;76.74;98223.13;4919083;29;20223;-83
2021/12/05 13:22:07;;;;;;;1.83;1.30;;;;;;;4.87;76.36;98215.44;4932427;23;20230;-84
2021/12/05 13:24:54;;;;;;;1.93;1.37;;;;;;;4.86;76.76;98210.34;4925703;23;20267;-83
2021/12/05 13:27:45;;;;;;;1.47;0.90;;;;;;;4.99;76.10;98214.75;4936175;23;20235;-82
2021/12/05 13:30:47;;;;;;;0.80;0.80;;;;;;;4.87;76.40;98204.00;4929750;23;20227;-83
2021/12/05 13:36:37;;;;;;;2.27;1.13;;;;;;;4.66;76.64;98194.59;4911552;23;20242;-82
2021/12/05 13:39:36;;;;;;;2.27;1.10;;;;;;;4.80;75.98;98208.56;4926121;23;20226;-82
2021/12/05 13:42:14;;;;;;;1.77;1.07;;;;;;;4.82;76.40;98214.47;4916639;29;20218;-82
2021/12/05 13:45:01;;;;;;;1.10;0.90;;;;;;;4.68;76.72;98215.59;4921827;23;20266;-83
2021/12/05 13:47:40;;;;;;;1.70;1.10;;;;;;;4.60;76.58;98200.75;4914068;29;20222;-83
2021/12/05 13:53:03;;;;;;;1.90;1.10;;;;;;;4.47;76.39;98237.19;4916363;29;20194;-83
2021/12/05 13:56:02;;;;;;;4.03;1.40;;;;;;;4.43;76.69;98232.28;4912381;29;20236;-82
2021/12/05 13:58:40;;;;;;;2.20;1.30;;;;;;;4.46;76.61;98254.13;4914431;29;20238;-83
2021/12/05 14:01:24;;;;;;;3.37;1.40;;;;;;;4.39;77.29;98251.50;4929194;23;20238;-82
2021/12/05 14:04:23;;;;;;;2.00;1.50;;;;;;;4.37;77.49;98251.72;4922870;23;20223;-83
2021/12/05 14:07:12;;;;;;;3.13;1.60;;;;;;;4.30;77.50;98250.13;4942837;23;20243;-82
2021/12/05 14:09:51;;;;;;;2.13;1.47;;;;;;;4.24;77.54;98243.84;4918162;23;20274;-82
2021/12/05 14:12:27;;;;;;;1.87;1.40;;;;;;;4.23;78.18;98246.72;4910369;29;20231;-83
2021/12/05 14:15:00;;;;;;;3.13;1.43;;;;;;;4.19;77.42;98237.56;4909196;29;20326;-82
2021/12/05 14:17:33;;;;;;;2.03;1.40;;;;;;;4.19;77.69;98238.38;4914569;29;20222;-82
2021/12/05 14:20:20;;;;;;;1.63;1.50;;;;;;;4.25;77.24;98239.34;4910466;29;20290;-82
2021/12/05 14:22:57;;;;;;;2.23;1.67;;;;;;;4.14;77.29;98229.44;5036001;23;20337;-81
2021/12/05 14:25:32;;;;;;;2.27;1.43;;;;;;;4.12;77.99;98248.19;4914092;29;20238;-82
2021/12/05 14:28:05;;;;;;;4.17;1.53;;;;;;;4.11;78.03;98232.47;4917984;23;20266;-81
2021/12/05 14:30:54;;;;;;;3.07;1.77;;;;;;;4.12;78.00;98244.72;4911031;29;20682;-82
2021/12/05 14:33:52;;;;;;;2.57;1.80;;;;;;;4.04;78.02;98248.44;4909695;29;20621;-81
2021/12/05 14:36:33;;;;;;;3.20;1.43;;;;;;;3.92;78.53;98232.38;4910031;29;20238;-81
2021/12/05 14:39:07;;;;;;;2.57;1.77;;;;;;;4.05;78.37;98260.66;4921816;23;20245;-81
2021/12/05 14:41:38;;;;;;;2.73;1.87;;;;;;;3.99;78.29;98259.66;4913826;29;20222;-81
2021/12/05 14:44:08;;;;;;;2.37;2.07;;;;;;;3.84;78.72;98253.81;4918858;23;20353;-81
2021/12/05 14:46:47;;;;;;;3.17;2.70;;;;;;;3.93;78.64;98268.44;4914490;29;20240;-81
2021/12/05 14:49:16;;;;;;;2.40;2.00;;;;;;;4.03;78.18;98269.84;4914764;29;20218;-82
2021/12/05 14:51:51;;;;;;;2.30;1.97;;;;;;;3.94;78.34;98267.44;4956817;23;20241;-80
2021/12/05 14:54:35;;;;;;;3.40;2.13;;;;;;;3.94;78.54;98271.91;4904809;23;20229;-81
2021/12/05 14:57:31;;;;;;;2.47;2.03;;;;;;;3.88;78.01;98254.19;4913082;29;20238;-81
2021/12/05 15:00:24;;;;;;;3.30;2.50;;;;;;;3.99;78.20;98272.91;4929069;29;20266;-81
2021/12/05 15:03:07;;;;;;;3.73;2.30;;;;;;;3.98;77.72;98270.47;4914018;29;20234;-81
2021/12/05 15:05:42;;;;;;;2.63;2.43;;;;;;;3.91;78.50;98277.66;4918996;23;20249;31
2021/12/05 15:08:14;;;;;;;2.70;2.40;;;;;;;3.76;78.86;98271.78;4895058;29;20230;-80
2021/12/05 15:10:43;;;;;;;4.67;2.90;;;;;;;3.74;78.90;98257.91;4887520;23;20233;-81
2021/12/05 15:13:16;;;;;;;3.67;3.07;;;;;;;3.77;79.07;98262.81;4910655;29;20239;-81
2021/12/05 15:15:44;;;;;;;4.03;2.90;;;;;;;3.78;79.73;98275.03;4893335;29;20235;-81
2021/12/05 15:18:29;;;;;;;4.47;3.03;;;;;;;3.83;79.55;98286.63;4897493;29;20230;-82
2021/12/05 15:20:57;;;;;;;3.43;2.83;;;;;;;3.79;79.72;98279.31;4909970;23;20294;-82
2021/12/05 15:23:32;;;;;;;3.20;2.70;;;;;;;3.73;80.11;98262.44;4883442;29;20218;-82
2021/12/05 15:26:07;;;;;;;3.43;3.00;;;;;;;3.72;80.17;98268.75;5030672;23;20242;-82
2021/12/05 15:28:39;;;;;;;4.80;2.80;;;;;;;3.68;80.46;98264.06;4913761;29;20214;-81
2021/12/05 15:31:18;;;;;;;4.33;3.33;;;;;;;3.62;80.56;98257.78;4913647;29;20298;-81
2021/12/05 15:33:54;;;;;;;3.53;3.03;;;;;;;3.67;80.70;98273.03;4921739;23;20241;-81
2021/12/05 15:36:34;;;;;;;3.90;2.73;;;;;;;3.65;80.87;98275.06;4916460;29;20244;-82
2021/12/05 15:39:19;;;;;;;5.43;3.00;;;;;;;3.50;81.13;98257.56;4986971;23;20210;-82
2021/12/05 15:41:59;;;;;;;3.13;2.73;;;;;;;3.68;81.38;98287.91;4929560;23;20250;-82
2021/12/05 15:44:34;;;;;;;2.83;2.60;;;;;;;3.75;81.19;98299.28;5017980;23;20250;-82
2021/12/05 15:47:37;;;;;;;3.13;2.83;;;;;;;3.69;81.23;98286.88;4918270;23;20350;-81
2021/12/05 15:50:22;;;;;;;2.87;2.63;;;;;;;3.74;81.13;98297.66;4886248;29;20290;-81
2021/12/05 15:52:58;;;;;;;3.37;2.87;;;;;;;3.74;81.44;98293.16;4920917;23;20270;-81
2021/12/05 15:55:34;;;;;;;4.20;3.10;;;;;;;3.77;81.15;98294.59;4910775;29;20222;-82
2021/12/05 15:58:08;;;;;;;3.50;3.20;;;;;;;3.74;80.93;98298.47;4916152;29;20258;-82
2021/12/05 16:00:47;;;;;;;5.53;3.40;;;;;;;3.77;81.03;98298.06;4936613;23;20245;-81
2021/12/05 16:03:18;;;;;;;3.33;2.87;;;;;;;3.69;80.17;98287.69;4909659;29;20248;-81
2021/12/05 16:05:57;;;;;;;4.17;3.00;;;;;;;3.83;79.95;98317.59;4920281;23;20313;-81
2021/12/05 16:08:28;;;;;;;3.27;2.97;;;;;;;3.75;79.68;98302.75;4913427;29;20265;-82
2021/12/05 16:11:09;;;;;;;4.33;3.20;;;;;;;3.83;79.87;98313.13;4910526;29;20307;-82
2021/12/05 16:13:48;;;;;;;3.67;3.20;;;;;;;3.93;79.18;98321.44;4909191;29;20261;-82
2021/12/05 16:16:32;;;;;;;3.60;3.30;;;;;;;3.99;78.92;98323.28;4910758;29;20235;-81
2021/12/05 16:19:02;;;;;;;3.97;2.70;;;;;;;3.95;79.02;98330.00;4895278;29;20273;-81
2021/12/05 16:21:31;;;;;;;3.83;3.23;;;;;;;3.91;79.29;98349.19;4908309;29;20277;-82
2021/12/05 16:24:09;;;;;;;3.80;3.40;;;;;;;3.89;78.97;98349.38;4894274;29;20245;-82
2021/12/05 16:26:38;;;;;;;4.00;3.20;;;;;;;3.97;79.07;98361.59;4910854;29;20230;-82
2021/12/05 16:29:32;;;;;;;3.07;2.80;;;;;;;3.97;79.05;98373.00;4918786;23;20234;-81
2021/12/05 16:32:00;;;;;;;3.80;3.50;;;;;;;3.99;79.72;98378.09;4878787;29;20289;-83
2021/12/05 16:34:30;;;;;;;3.37;3.07;;;;;;;3.89;80.00;98370.59;4908121;29;20237;-81
2021/12/05 16:37:12;;;;;;;4.97;3.50;;;;;;;3.88;79.99;98376.09;4908195;29;20235;-81
2021/12/05 16:39:44;;;;;;;4.23;3.83;;;;;;;3.91;80.48;98389.75;4909146;29;20225;-80
2021/12/05 16:42:22;;;;;;;4.30;3.80;;;;;;;3.88;80.66;98386.69;4909107;23;20545;-81
2021/12/05 16:44:54;;;;;;;3.83;3.53;;;;;;;3.86;80.92;98380.78;4925417;29;20241;-81
2021/12/05 16:47:27;;;;;;;4.73;4.27;;;;;;;3.91;80.99;98391.59;4914518;29;20260;-82
2021/12/05 16:50:04;;;;;;;4.73;4.33;;;;;;;3.87;81.42;98398.31;4927467;29;20244;-82
2021/12/05 16:52:36;;;;;;;5.90;4.77;;;;;;;3.73;81.45;98378.16;4926271;29;20250;-81
2021/12/05 16:55:25;;;;;;;5.47;4.70;;;;;;;3.83;82.12;98397.91;4911961;29;20694;-82
2021/12/05 16:58:17;;;;;;;5.23;4.73;;;;;;;3.76;82.68;98391.00;4929599;29;20238;-83
2021/12/05 17:01:07;;;;;;;6.27;5.53;;;;;;;3.81;82.96;98385.88;4914317;29;20266;-83
2021/12/05 17:03:48;;;;;;;6.57;5.97;;;;;;;3.79;82.04;98370.19;4930149;29;20615;-82
2021/12/05 17:06:15;;;;;;;5.97;5.47;;;;;;;3.75;82.68;98379.56;4910887;29;20237;-82
2021/12/05 17:08:45;;;;;;;6.30;5.70;;;;;;;3.71;83.04;98386.31;4912155;29;20289;-83
2021/12/05 17:11:21;;;;;;;7.40;6.13;;;;;;;3.70;83.53;98386.50;4913140;29;20230;-82
2021/12/05 17:13:53;;;;;;;7.77;6.97;;;;;;;3.67;83.67;98385.09;4929174;29;20178;-82
2021/12/05 17:16:28;;;;;;;9.53;8.13;;;;;;;3.61;84.05;98385.09;4930663;29;20222;-82
2021/12/05 17:19:04;;;;;;;7.30;6.67;;;;;;;3.65;84.18;98391.59;4911845;29;20627;-82
2021/12/05 17:21:49;;;;;;;9.90;7.33;;;;;;;3.67;84.46;98398.34;4913050;29;20209;-82
2021/12/05 17:24:18;;;;;;;8.03;6.97;;;;;;;3.60;84.51;98388.75;4927805;29;20265;-83
2021/12/05 17:26:58;;;;;;;14.07;8.13;;;;;;;3.61;84.96;98383.25;4933665;23;20234;-82
2021/12/05 17:29:37;;;;;;;12.27;8.57;;;;;;;3.61;84.88;98383.25;4891465;29;20250;-82
2021/12/05 17:32:16;;;;;;;14.67;8.47;;;;;;;3.62;85.25;98382.25;4879611;29;20228;-83
2021/12/05 17:35:13;;;;;;;10.40;8.13;;;;;;;3.60;85.22;98378.97;4898921;29;20231;-83
2021/12/05 17:38:08;;;;;;;8.03;7.23;;;;;;;3.66;85.06;98372.06;4895865;29;20247;-82
2021/12/05 17:40:35;;;;;;;9.30;7.50;;;;;;;3.57;84.83;98360.84;4893200;29;20244;-83
2021/12/05 17:43:05;;;;;;;9.40;8.40;;;;;;;3.59;84.69;98364.13;4955544;23;20261;-83
2021/12/05 17:45:37;;;;;;;9.10;7.77;;;;;;;3.60;84.34;98364.91;4932509;29;20241;-83
2021/12/05 17:48:07;;;;;;;8.07;6.93;;;;;;;3.53;84.87;98355.16;4932179;29;20537;-82
2021/12/05 17:50:34;;;;;;;9.30;7.60;;;;;;;3.48;84.79;98362.91;4915377;29;20237;-83
2021/12/05 17:53:02;;;;;;;8.37;7.33;;;;;;;3.52;85.03;98366.78;4900534;29;20238;-83
2021/12/05 17:55:32;;;;;;;9.23;7.67;;;;;;;3.50;85.55;98376.75;4924005;29;20225;-83
2021/12/05 17:58:17;;;;;;;8.77;7.77;;;;;;;3.51;85.11;98382.84;4920548;29;20234;-83
2021/12/05 18:02:35;;;;;;;8.53;7.73;;;;;;;3.60;85.11;98386.09;4933796;23;20241;-83
2021/12/05 18:03:42;;;;;;;10.87;9.70;;;;;;;3.48;85.25;98370.84;4969197;23;20242;-83
2021/12/05 18:06:11;;;;;;;11.70;10.50;;;;;;;3.50;84.86;98376.75;4925807;23;20479;-83
2021/12/05 18:08:42;;;;;;;10.70;9.37;;;;;;;3.61;84.52;98374.50;4916752;29;20214;-83
2021/12/05 18:11:19;;;;;;;12.40;9.10;;;;;;;3.44;84.61;98356.41;4899704;29;20243;-83
2021/12/05 18:14:03;;;;;;;10.43;9.07;;;;;;;3.43;85.66;98381.25;4754955;23;5017911;-83
2021/12/05 18:16:31;;;;;;;10.63;9.30;;;;;;;3.47;85.82;98395.69;4907036;23;20286;-83
2021/12/05 18:19:04;;;;;;;10.73;9.17;;;;;;;3.47;85.59;98398.34;4915189;29;20227;-83
2021/12/05 18:21:37;;;;;;;10.47;8.83;;;;;;;3.41;85.87;98395.69;4915411;29;20218;-82
2021/12/05 18:24:09;;;;;;;9.87;8.73;;;;;;;3.38;86.38;98394.28;4915588;29;20257;-84
2021/12/05 18:26:43;;;;;;;12.83;8.50;;;;;;;3.37;86.71;98400.56;4898874;29;20533;-82
2021/12/05 18:29:15;;;;;;;9.80;8.47;;;;;;;3.40;86.69;98399.38;4915393;29;20242;-84
2021/12/05 18:31:45;;;;;;;9.30;8.03;;;;;;;3.45;86.27;98400.38;4899624;29;20234;-82
2021/12/05 18:34:24;;;;;;;9.07;8.17;;;;;;;3.35;86.51;98386.75;4899149;29;20302;-83
2021/12/05 18:36:56;;;;;;;12.43;9.70;;;;;;;3.47;86.21;98400.19;4913159;29;20234;-82